Time;durP1;ratioP1;P1;durP2;ratioP2;P2;SDS_P1;SDS_P2;PMS_P1;PMS_P2;Temp;Humidity;BMP_temperature;BMP_pressure;BME280_temperature;BME280_humidity;BME280_pressure;Samples;Min_cycle;Max_cycle;Signal;HPM_P1;HPM_P2
2020/12/06 00:00:09;;;;;;;350.88;81.70;;;;;;;-1.62;100.00;94038.72;1035548;28;20268;-84
2020/12/06 00:00:40;;;;;;;378.83;86.85;;;;;;;-1.58;100.00;94052.00;1032592;28;20030;-86
2020/12/06 00:01:10;;;;;;;422.00;91.03;;;;;;;-1.58;100.00;94033.06;1028917;28;20050;-84
2020/12/06 00:01:41;;;;;;;372.25;82.68;;;;;;;-1.56;100.00;94036.19;1024016;28;20016;-82
2020/12/06 00:02:11;;;;;;;531.30;93.78;;;;;;;-1.66;100.00;94016.13;1028023;28;20113;-79
2020/12/06 00:02:42;;;;;;;642.67;111.75;;;;;;;-1.58;100.00;94020.09;1028518;28;20495;-81
2020/12/06 00:03:12;;;;;;;290.10;73.13;;;;;;;-1.58;100.00;94012.31;1028383;28;20443;-83
2020/12/06 00:03:43;;;;;;;762.53;134.77;;;;;;;-1.62;100.00;94002.44;1028211;28;20039;-84
2020/12/06 00:04:19;;;;;;;582.90;114.20;;;;;;;-1.60;100.00;94005.56;1024218;29;20028;-79
2020/12/06 00:04:50;;;;;;;288.10;78.82;;;;;;;-1.62;100.00;93997.25;1029911;28;20027;-80
2020/12/06 00:05:20;;;;;;;452.95;94.70;;;;;;;-1.58;100.00;94014.91;1032004;28;20269;-83
2020/12/06 00:05:51;;;;;;;446.48;98.60;;;;;;;-1.57;100.00;94019.06;1033281;28;20022;-85
2020/12/06 00:06:26;;;;;;;670.83;116.07;;;;;;;-1.56;100.00;94036.19;1035628;28;20458;-81
2020/12/06 00:06:57;;;;;;;623.85;108.25;;;;;;;-1.63;100.00;94050.13;1029609;28;20210;-82
2020/12/06 00:07:27;;;;;;;351.67;73.28;;;;;;;-1.66;100.00;94065.41;1032491;28;20320;-85
2020/12/06 00:07:58;;;;;;;230.57;62.83;;;;;;;-1.73;100.00;94062.22;1028242;28;20090;-80
2020/12/06 00:08:28;;;;;;;193.82;60.08;;;;;;;-1.66;100.00;94062.81;1028147;28;20072;-80
2020/12/06 00:08:59;;;;;;;275.50;68.32;;;;;;;-1.71;100.00;94057.56;1016224;28;20048;-86
2020/12/06 00:09:31;;;;;;;279.90;66.53;;;;;;;-1.77;100.00;94061.13;1032309;28;20038;-84
2020/12/06 00:10:07;;;;;;;267.45;64.57;;;;;;;-1.75;100.00;94065.03;1028360;28;20415;-82
2020/12/06 00:10:38;;;;;;;419.27;81.68;;;;;;;-1.77;100.00;94056.72;1032447;28;20272;-85
2020/12/06 00:11:08;;;;;;;333.33;71.40;;;;;;;-1.76;100.00;94054.91;1030181;28;20273;-85
2020/12/06 00:11:38;;;;;;;278.67;65.57;;;;;;;-1.73;100.00;94055.22;1032505;28;20026;-83
2020/12/06 00:12:09;;;;;;;250.45;64.25;;;;;;;-1.75;100.00;94052.06;1032075;28;20010;-80
2020/12/06 00:12:42;;;;;;;277.33;70.10;;;;;;;-1.74;100.00;94047.69;1032081;28;20022;-79
2020/12/06 00:13:13;;;;;;;343.90;73.38;;;;;;;-1.76;100.00;94034.97;1036684;28;20451;-80
2020/12/06 00:13:45;;;;;;;395.45;84.43;;;;;;;-1.74;100.00;94024.34;1040672;28;20295;-84
2020/12/06 00:14:16;;;;;;;387.45;73.75;;;;;;;-1.75;100.00;94035.75;1039861;28;20839;-84
2020/12/06 00:14:47;;;;;;;287.45;66.10;;;;;;;-1.80;100.00;94031.31;1032220;28;20061;-78
2020/12/06 00:15:18;;;;;;;324.10;71.38;;;;;;;-1.74;100.00;94040.69;1036070;28;20284;-83
2020/12/06 00:15:48;;;;;;;299.55;71.07;;;;;;;-1.83;100.00;94039.56;1034065;28;20558;-85
2020/12/06 00:16:20;;;;;;;345.10;81.10;;;;;;;-1.88;100.00;94048.06;1028551;28;20065;-85
2020/12/06 00:16:51;;;;;;;218.57;64.07;;;;;;;-1.85;100.00;94054.56;1032300;28;20018;-80
2020/12/06 00:17:22;;;;;;;181.73;63.28;;;;;;;-1.95;100.00;94033.72;1028477;28;20345;-84
2020/12/06 00:17:52;;;;;;;239.93;70.55;;;;;;;-1.81;100.00;94055.66;1032011;28;20596;-85
2020/12/06 00:18:23;;;;;;;162.40;63.75;;;;;;;-1.83;100.00;94055.09;1032222;28;20027;-81
2020/12/06 00:18:53;;;;;;;159.15;63.22;;;;;;;-1.83;100.00;94042.91;1031765;28;20083;-83
2020/12/06 00:19:28;;;;;;;116.80;54.88;;;;;;;-1.78;100.00;94050.00;1032659;28;20085;-79
2020/12/06 00:20:00;;;;;;;110.13;55.17;;;;;;;-1.78;100.00;94057.75;1041353;28;20323;-83
2020/12/06 00:20:30;;;;;;;141.32;58.38;;;;;;;-1.84;100.00;94058.75;1032376;28;20269;-83
2020/12/06 00:21:01;;;;;;;177.88;68.18;;;;;;;-1.91;100.00;94056.31;1027959;28;20266;-81
2020/12/06 00:21:32;;;;;;;160.40;61.88;;;;;;;-1.92;100.00;94051.38;1028099;28;20042;-83
2020/12/06 00:22:03;;;;;;;136.65;56.92;;;;;;;-1.93;100.00;94053.19;1032504;28;20078;-84
2020/12/06 00:22:34;;;;;;;113.80;56.88;;;;;;;-1.86;100.00;94056.38;1032614;28;20426;-80
2020/12/06 00:23:04;;;;;;;132.43;59.35;;;;;;;-1.85;100.00;94052.75;1036477;28;20470;-83
2020/12/06 00:23:35;;;;;;;89.47;48.97;;;;;;;-1.83;100.00;94048.09;1035616;28;20128;-84
2020/12/06 00:24:05;;;;;;;134.07;57.72;;;;;;;-1.90;100.00;94033.75;1036185;28;20018;-83
2020/12/06 00:24:36;;;;;;;131.65;56.30;;;;;;;-1.84;100.00;94050.97;1032175;28;20018;-84
2020/12/06 00:25:06;;;;;;;85.57;45.97;;;;;;;-1.82;100.00;94049.69;1032469;28;20041;-82
2020/12/06 00:25:38;;;;;;;86.15;49.60;;;;;;;-1.77;100.00;94053.34;1024425;28;20024;-84
2020/12/06 00:26:10;;;;;;;96.65;50.78;;;;;;;-1.79;100.00;94051.00;1024357;28;20039;-84
2020/12/06 00:26:42;;;;;;;89.00;50.20;;;;;;;-1.82;100.00;94049.69;1024442;28;20306;-83
2020/12/06 00:27:12;;;;;;;88.53;48.42;;;;;;;-1.72;100.00;94045.63;1028193;28;20805;-84
2020/12/06 00:27:43;;;;;;;96.65;53.75;;;;;;;-1.67;100.00;94050.88;1027977;28;20278;-83
2020/12/06 00:28:13;;;;;;;69.78;44.38;;;;;;;-1.66;100.00;94047.25;1024088;29;20023;-83
2020/12/06 00:28:44;;;;;;;86.63;50.55;;;;;;;-1.63;100.00;94044.94;1028393;28;20053;-85
2020/12/06 00:29:14;;;;;;;64.38;41.95;;;;;;;-1.65;100.00;94046.22;1032386;28;20058;-81
2020/12/06 00:29:45;;;;;;;80.93;48.03;;;;;;;-1.60;100.00;94047.06;1032448;28;20434;-83
2020/12/06 00:30:15;;;;;;;76.25;47.17;;;;;;;-1.60;100.00;94043.69;1039840;28;20045;-81
2020/12/06 00:30:47;;;;;;;86.47;50.35;;;;;;;-1.61;100.00;94042.88;1036467;28;20025;-83
2020/12/06 00:31:18;;;;;;;74.25;46.22;;;;;;;-1.62;100.00;94033.53;1031992;28;20394;-83
2020/12/06 00:31:48;;;;;;;80.13;47.25;;;;;;;-1.61;100.00;94034.31;1024112;29;20338;-85
2020/12/06 00:32:20;;;;;;;78.10;44.88;;;;;;;-1.56;100.00;94042.16;1024287;28;20020;-81
2020/12/06 00:32:50;;;;;;;91.57;49.90;;;;;;;-1.51;100.00;94034.41;1021071;28;20031;-84
2020/12/06 00:33:22;;;;;;;84.30;48.78;;;;;;;-1.59;100.00;94037.44;1029084;28;20293;-83
2020/12/06 00:33:54;;;;;;;91.88;49.53;;;;;;;-1.57;100.00;94026.84;1040162;28;20021;-82
2020/12/06 00:34:25;;;;;;;72.25;43.50;;;;;;;-1.60;100.00;94038.50;1035102;28;20284;-84
2020/12/06 00:34:58;;;;;;;68.30;43.65;;;;;;;-1.62;100.00;94037.97;1036277;28;20564;-84
2020/12/06 00:35:31;;;;;;;67.53;43.88;;;;;;;-1.60;100.00;94036.69;1035182;28;20277;-85
2020/12/06 00:36:01;;;;;;;59.35;40.90;;;;;;;-1.52;100.00;94032.88;1033489;28;20769;-84
2020/12/06 00:36:32;;;;;;;60.10;40.17;;;;;;;-1.52;100.00;94024.31;1036424;28;20289;-84
2020/12/06 00:37:03;;;;;;;72.82;44.50;;;;;;;-1.55;100.00;94035.94;1036338;28;20414;-84
2020/12/06 00:37:36;;;;;;;73.60;46.05;;;;;;;-1.48;100.00;94033.94;1036369;28;20109;-84
2020/12/06 00:38:06;;;;;;;75.55;44.25;;;;;;;-1.50;100.00;94038.59;1032567;28;20579;-82
2020/12/06 00:38:37;;;;;;;86.28;47.58;;;;;;;-1.53;100.00;94039.06;1035868;28;20257;-84
2020/12/06 00:39:09;;;;;;;67.28;43.50;;;;;;;-1.49;100.00;94042.72;1032477;28;20482;-86
2020/12/06 00:39:43;;;;;;;67.43;43.28;;;;;;;-1.51;100.00;94044.00;1028865;28;20011;-84
2020/12/06 00:40:13;;;;;;;69.15;42.97;;;;;;;-1.50;100.00;94046.38;1024418;29;20373;-86
2020/12/06 00:40:44;;;;;;;74.32;45.13;;;;;;;-1.47;100.00;94047.69;1028423;28;20270;-85
2020/12/06 00:41:17;;;;;;;65.78;43.25;;;;;;;-1.52;100.00;94048.44;1024395;28;20030;-81
2020/12/06 00:41:48;;;;;;;71.03;43.72;;;;;;;-1.51;100.00;94039.59;1028372;28;20034;-82
2020/12/06 00:42:18;;;;;;;69.22;42.45;;;;;;;-1.50;100.00;94051.56;1020834;29;20263;-85
2020/12/06 00:42:49;;;;;;;62.08;41.90;;;;;;;-1.55;100.00;94046.31;1028843;28;20344;-84
2020/12/06 00:43:21;;;;;;;64.30;40.38;;;;;;;-1.53;100.00;94046.06;1032910;28;20015;-82
2020/12/06 00:43:51;;;;;;;80.60;45.97;;;;;;;-1.54;100.00;94034.91;1040983;28;20656;-83
2020/12/06 00:44:22;;;;;;;65.00;42.30;;;;;;;-1.54;100.00;94039.34;1028329;28;20364;-85
2020/12/06 00:44:52;;;;;;;70.60;43.05;;;;;;;-1.52;100.00;94029.50;1020884;29;20016;-86
2020/12/06 00:45:23;;;;;;;60.90;40.28;;;;;;;-1.51;100.00;94026.63;1033190;28;20498;-85
2020/12/06 00:45:53;;;;;;;69.38;43.00;;;;;;;-1.51;100.00;94024.03;1027641;28;20030;-83
2020/12/06 00:46:24;;;;;;;75.18;46.03;;;;;;;-1.56;100.00;94016.22;1028847;28;20019;-84
2020/12/06 00:46:58;;;;;;;85.45;47.08;;;;;;;-1.62;100.00;94009.44;1029313;28;20023;-85
2020/12/06 00:47:28;;;;;;;69.43;43.15;;;;;;;-1.52;100.00;94021.72;1029306;28;20262;-87
2020/12/06 00:47:59;;;;;;;69.68;43.35;;;;;;;-1.53;100.00;94025.31;1026686;28;20262;-86
2020/12/06 00:48:29;;;;;;;80.05;44.83;;;;;;;-1.54;100.00;94026.38;1036997;28;20018;-84
2020/12/06 00:49:01;;;;;;;61.67;40.85;;;;;;;-1.49;100.00;94029.75;1033109;28;20101;-84
2020/12/06 00:49:32;;;;;;;65.05;42.22;;;;;;;-1.49;100.00;94021.97;1036476;28;20034;-82
2020/12/06 00:50:06;;;;;;;59.58;40.08;;;;;;;-1.51;100.00;94008.47;1036867;28;20316;-86
2020/12/06 00:50:36;;;;;;;65.80;41.60;;;;;;;-1.59;100.00;93995.94;1034782;28;20273;-84
2020/12/06 00:51:07;;;;;;;68.43;43.75;;;;;;;-1.52;100.00;93999.13;1033040;28;20666;-84
2020/12/06 00:51:38;;;;;;;61.40;40.85;;;;;;;-1.52;100.00;94006.16;1024903;28;20026;-85
2020/12/06 00:52:08;;;;;;;69.35;43.05;;;;;;;-1.62;100.00;94004.25;1025336;28;20027;-84
2020/12/06 00:52:39;;;;;;;68.55;44.03;;;;;;;-1.58;100.00;93994.94;1025490;28;20019;-86
2020/12/06 00:53:10;;;;;;;74.00;45.53;;;;;;;-1.61;100.00;93987.63;1033560;28;20033;-87
2020/12/06 00:53:43;;;;;;;65.82;42.33;;;;;;;-1.57;100.00;93988.72;1040480;28;20275;-85
2020/12/06 00:54:14;;;;;;;64.13;41.05;;;;;;;-1.53;100.00;93994.19;1033874;28;20019;-86
2020/12/06 00:54:45;;;;;;;74.85;44.65;;;;;;;-1.50;100.00;93999.69;1033043;28;20273;-86
2020/12/06 00:55:16;;;;;;;70.38;43.90;;;;;;;-1.57;100.00;93999.09;1032945;28;20079;-84
2020/12/06 00:55:46;;;;;;;68.20;42.85;;;;;;;-1.54;100.00;94001.19;1033180;28;20733;-83
2020/12/06 00:56:19;;;;;;;64.53;42.00;;;;;;;-1.51;100.00;93982.53;1032672;28;20034;-85
2020/12/06 00:56:56;;;;;;;75.47;46.88;;;;;;;-1.48;100.00;93976.88;1025758;28;20468;-85
2020/12/06 00:57:27;;;;;;;73.00;45.47;;;;;;;-1.49;100.00;93985.66;1027422;28;20271;-83
2020/12/06 00:57:57;;;;;;;76.85;45.75;;;;;;;-1.48;100.00;93989.84;1034350;28;20285;-84
2020/12/06 00:58:28;;;;;;;62.47;40.75;;;;;;;-1.50;100.00;93999.69;1034175;28;20022;-83
2020/12/06 00:58:58;;;;;;;68.68;42.17;;;;;;;-1.50;100.00;94002.28;1037445;28;20022;-84
2020/12/06 00:59:30;;;;;;;58.30;39.13;;;;;;;-1.42;100.00;93990.66;1041055;28;20026;-84
2020/12/06 01:00:01;;;;;;;65.05;41.08;;;;;;;-1.41;100.00;93982.63;1041299;28;20017;-85
2020/12/06 01:00:32;;;;;;;65.00;41.55;;;;;;;-1.38;100.00;93985.78;1041343;28;20255;-83
2020/12/06 01:01:02;;;;;;;69.55;43.75;;;;;;;-1.41;100.00;93985.22;1036780;28;20360;-83
2020/12/06 01:01:39;;;;;;;71.75;44.35;;;;;;;-1.47;100.00;93988.00;1032890;28;20490;-86
2020/12/06 01:02:11;;;;;;;52.95;37.92;;;;;;;-1.38;100.00;94012.50;1029284;28;20125;-85
2020/12/06 01:02:41;;;;;;;53.28;37.83;;;;;;;-1.36;100.00;94022.63;1034073;28;20345;-84
2020/12/06 01:03:14;;;;;;;54.53;38.80;;;;;;;-1.40;100.00;94015.31;1033552;28;20276;-79
2020/12/06 01:03:45;;;;;;;60.40;41.17;;;;;;;-1.43;100.00;94015.84;1033518;28;20022;-84
2020/12/06 01:04:15;;;;;;;57.30;40.20;;;;;;;-1.38;100.00;94022.09;1036968;28;20264;-81
2020/12/06 01:04:46;;;;;;;52.42;38.00;;;;;;;-1.37;100.00;94026.25;1037860;28;20265;-85
2020/12/06 01:05:16;;;;;;;57.78;38.30;;;;;;;-1.46;100.00;94018.91;1041271;28;20155;-86
2020/12/06 01:05:47;;;;;;;58.83;40.13;;;;;;;-1.48;100.00;94023.56;1037199;28;20033;-86
2020/12/06 01:06:19;;;;;;;57.35;38.03;;;;;;;-1.57;100.00;94001.69;1036803;28;20534;-82
2020/12/06 01:06:49;;;;;;;57.60;40.03;;;;;;;-1.49;100.00;94005.63;1032862;28;20281;-84
2020/12/06 01:07:23;;;;;;;60.80;42.88;;;;;;;-1.47;100.00;93998.38;1033701;28;20019;-84
2020/12/06 01:07:55;;;;;;;58.80;40.58;;;;;;;-1.49;100.00;93998.63;1041308;28;20424;-85
2020/12/06 01:08:25;;;;;;;56.17;38.72;;;;;;;-1.51;100.00;93994.72;1033608;28;20761;-84
2020/12/06 01:08:56;;;;;;;61.33;37.67;;;;;;;-1.48;100.00;93995.03;1037016;28;20277;-85
2020/12/06 01:09:29;;;;;;;54.33;36.97;;;;;;;-1.48;100.00;93996.84;1036942;28;20077;-85
2020/12/06 01:10:00;;;;;;;66.15;43.63;;;;;;;-1.44;100.00;93997.91;1033682;28;20273;-84
2020/12/06 01:10:32;;;;;;;60.60;39.65;;;;;;;-1.42;100.00;94007.00;1024481;29;20043;-81
2020/12/06 01:11:04;;;;;;;55.17;37.97;;;;;;;-1.48;100.00;93997.63;1021202;29;20035;-83
2020/12/06 01:11:36;;;;;;;57.53;37.90;;;;;;;-1.49;100.00;93998.63;1021668;29;20659;-85
2020/12/06 01:12:08;;;;;;;59.10;39.55;;;;;;;-1.54;100.00;94001.19;1027169;28;20334;-84
2020/12/06 01:12:39;;;;;;;57.10;39.75;;;;;;;-1.56;100.00;93989.50;1037313;28;20281;-84
2020/12/06 01:13:10;;;;;;;62.45;41.95;;;;;;;-1.49;100.00;93988.25;1032515;28;20285;-84
2020/12/06 01:13:42;;;;;;;63.20;41.35;;;;;;;-1.49;100.00;93987.47;1033032;28;20029;-84
2020/12/06 01:14:13;;;;;;;65.97;42.13;;;;;;;-1.49;100.00;93990.84;1032968;28;20518;-85
2020/12/06 01:14:44;;;;;;;60.72;40.80;;;;;;;-1.52;100.00;93975.03;1028979;28;20780;-84
2020/12/06 01:15:16;;;;;;;68.00;42.10;;;;;;;-1.47;100.00;93978.41;1033082;28;20258;-84
2020/12/06 01:15:48;;;;;;;70.82;44.58;;;;;;;-1.50;100.00;93973.72;1032969;28;20469;-85
2020/12/06 01:16:19;;;;;;;62.53;42.55;;;;;;;-1.48;100.00;93976.88;1032947;28;20262;-85
2020/12/06 01:16:51;;;;;;;63.08;43.00;;;;;;;-1.44;100.00;93983.13;1024694;28;20255;-83
2020/12/06 01:17:21;;;;;;;70.55;44.30;;;;;;;-1.44;100.00;93997.91;1032725;28;20050;-84
2020/12/06 01:17:54;;;;;;;66.63;43.38;;;;;;;-1.40;100.00;93999.75;1033289;28;20277;-84
2020/12/06 01:18:24;;;;;;;67.78;42.50;;;;;;;-1.38;100.00;94011.72;1037201;28;20010;-86
2020/12/06 01:18:55;;;;;;;64.55;43.22;;;;;;;-1.36;100.00;94017.44;1040898;28;20307;-85
2020/12/06 01:19:25;;;;;;;67.45;42.45;;;;;;;-1.42;100.00;94024.38;1037147;28;20022;-85
2020/12/06 01:19:57;;;;;;;65.05;42.13;;;;;;;-1.36;100.00;94027.81;1033281;28;20388;-84
2020/12/06 01:20:27;;;;;;;65.25;42.33;;;;;;;-1.38;100.00;94027.28;1037691;28;20253;-82
2020/12/06 01:20:58;;;;;;;63.63;40.70;;;;;;;-1.34;100.00;94025.75;1037728;28;20022;-85
2020/12/06 01:21:28;;;;;;;59.95;39.85;;;;;;;-1.28;100.00;94027.38;1033534;28;20034;-85
2020/12/06 01:21:59;;;;;;;59.55;39.33;;;;;;;-1.28;100.00;94022.16;1033154;28;20015;-84
2020/12/06 01:22:30;;;;;;;59.22;40.08;;;;;;;-1.24;100.00;94023.25;1033435;28;20021;-82
2020/12/06 01:23:01;;;;;;;60.78;40.60;;;;;;;-1.24;100.00;94013.63;1037693;28;20041;-83
2020/12/06 01:23:34;;;;;;;61.00;39.20;;;;;;;-1.34;100.00;93998.00;1033521;28;20258;-86
2020/12/06 01:24:05;;;;;;;62.33;41.92;;;;;;;-1.29;100.00;94012.81;1025642;29;20219;-86
2020/12/06 01:24:36;;;;;;;57.22;39.63;;;;;;;-1.21;100.00;94007.16;1025967;28;20634;-84
2020/12/06 01:25:07;;;;;;;57.22;38.67;;;;;;;-1.23;100.00;94007.44;1026522;28;20263;-86
2020/12/06 01:25:38;;;;;;;58.83;39.38;;;;;;;-1.23;100.00;94004.03;1030248;28;20015;-85
2020/12/06 01:26:10;;;;;;;62.80;39.67;;;;;;;-1.23;100.00;94004.84;1033608;28;20014;-85
2020/12/06 01:26:41;;;;;;;66.85;41.35;;;;;;;-1.23;100.00;93998.84;1033523;28;20253;-87
2020/12/06 01:27:11;;;;;;;65.78;40.47;;;;;;;-1.26;100.00;93983.78;1037330;28;20775;-86
2020/12/06 01:27:42;;;;;;;69.72;42.08;;;;;;;-1.26;100.00;93984.56;1037049;28;20279;-84
2020/12/06 01:28:12;;;;;;;60.85;40.47;;;;;;;-1.24;100.00;93979.91;1037205;28;20014;-85
2020/12/06 01:28:44;;;;;;;70.50;44.30;;;;;;;-1.26;100.00;93969.00;1040936;28;20095;-81
2020/12/06 01:29:16;;;;;;;63.08;40.40;;;;;;;-1.29;100.00;93977.28;1033136;28;20026;-85
2020/12/06 01:29:48;;;;;;;74.78;44.78;;;;;;;-1.36;100.00;93979.28;1037307;28;20261;-86
2020/12/06 01:30:19;;;;;;;70.45;43.10;;;;;;;-1.40;100.00;93981.59;1036110;28;20261;-85
2020/12/06 01:30:51;;;;;;;66.55;39.80;;;;;;;-1.36;100.00;93984.47;1033163;28;20023;-83
2020/12/06 01:31:21;;;;;;;59.08;40.50;;;;;;;-1.34;100.00;93979.06;1031062;28;20042;-84
2020/12/06 01:31:52;;;;;;;58.65;41.58;;;;;;;-1.36;100.00;93975.94;1028532;28;20618;-84
2020/12/06 01:32:22;;;;;;;59.80;38.33;;;;;;;-1.32;100.00;93979.59;1033256;28;20010;-83
2020/12/06 01:32:53;;;;;;;64.20;40.85;;;;;;;-1.40;100.00;93968.63;1032948;28;20018;-84
2020/12/06 01:33:23;;;;;;;64.07;42.08;;;;;;;-1.36;100.00;93974.09;1033171;28;20018;-84
2020/12/06 01:33:54;;;;;;;69.85;43.22;;;;;;;-1.36;100.00;93981.88;1032586;28;20030;-84
2020/12/06 01:34:25;;;;;;;57.30;37.92;;;;;;;-1.33;100.00;93986.56;1029128;28;20019;-85
2020/12/06 01:34:55;;;;;;;47.30;34.03;;;;;;;-1.34;100.00;93979.06;1037246;28;20022;-85
2020/12/06 01:35:28;;;;;;;52.08;36.15;;;;;;;-1.34;100.00;93987.63;1033041;28;20018;-85
2020/12/06 01:35:59;;;;;;;57.30;39.83;;;;;;;-1.39;100.00;93979.78;1036949;28;20080;-83
2020/12/06 01:36:29;;;;;;;52.00;35.58;;;;;;;-1.30;100.00;93988.69;1032767;28;20400;-82
2020/12/06 01:36:59;;;;;;;59.53;40.63;;;;;;;-1.32;100.00;93977.00;1028881;28;20018;-85
2020/12/06 01:37:30;;;;;;;65.63;43.05;;;;;;;-1.28;100.00;93991.03;1029225;28;20062;-86
2020/12/06 01:38:00;;;;;;;69.03;43.92;;;;;;;-1.39;100.00;93982.38;1029180;28;20023;-85
2020/12/06 01:38:31;;;;;;;74.05;44.97;;;;;;;-1.37;100.00;93992.50;1036556;28;20025;-82
2020/12/06 01:39:01;;;;;;;65.05;41.80;;;;;;;-1.43;100.00;93971.72;1032900;28;20033;-85
2020/12/06 01:39:34;;;;;;;63.35;41.38;;;;;;;-1.42;100.00;93964.72;1032933;28;20015;-83
2020/12/06 01:40:05;;;;;;;59.85;39.70;;;;;;;-1.37;100.00;93976.94;1025148;28;20751;-85
2020/12/06 01:40:40;;;;;;;59.35;41.63;;;;;;;-1.37;100.00;93969.94;1025476;28;20274;-84
2020/12/06 01:41:11;;;;;;;61.45;41.22;;;;;;;-1.37;100.00;93971.75;1026860;28;20050;-85
2020/12/06 01:41:42;;;;;;;62.78;39.67;;;;;;;-1.37;100.00;93988.09;1029731;28;20277;-85
2020/12/06 01:42:12;;;;;;;69.25;43.35;;;;;;;-1.42;100.00;93999.22;1032972;28;20321;-83
2020/12/06 01:42:46;;;;;;;80.10;46.75;;;;;;;-1.51;100.00;93999.91;1033268;28;20030;-82
2020/12/06 01:43:16;;;;;;;68.53;43.10;;;;;;;-1.46;100.00;94012.94;1037139;28;20022;-85
2020/12/06 01:43:56;;;;;;;70.18;43.95;;;;;;;-1.43;100.00;94022.81;1036760;28;20261;-81
2020/12/06 01:44:27;;;;;;;69.47;43.08;;;;;;;-1.37;100.00;94028.81;1036695;28;20493;-84
2020/12/06 01:45:00;;;;;;;72.25;43.60;;;;;;;-1.41;100.00;94031.94;1038710;28;20060;-85
2020/12/06 01:45:31;;;;;;;58.15;39.53;;;;;;;-1.46;100.00;94025.91;1039243;28;20052;-84
2020/12/06 01:46:02;;;;;;;61.42;41.65;;;;;;;-1.45;100.00;94017.88;1040774;28;20263;-84
2020/12/06 01:46:35;;;;;;;68.47;42.92;;;;;;;-1.47;100.00;94016.56;1038126;28;20490;-86
2020/12/06 01:47:05;;;;;;;57.20;39.55;;;;;;;-1.42;100.00;94016.59;1036733;28;20265;-86
2020/12/06 01:47:36;;;;;;;57.58;38.85;;;;;;;-1.44;100.00;94019.44;1036681;28;20256;-85
2020/12/06 01:48:09;;;;;;;59.33;40.08;;;;;;;-1.40;100.00;94017.13;1037171;28;20052;-84
2020/12/06 01:48:40;;;;;;;60.20;41.15;;;;;;;-1.35;100.00;94008.59;1036992;28;20097;-85
2020/12/06 01:49:12;;;;;;;64.68;42.28;;;;;;;-1.37;100.00;94010.66;1036659;28;20315;-83
2020/12/06 01:49:43;;;;;;;64.15;40.72;;;;;;;-1.40;100.00;94007.53;1028981;28;20273;-83
2020/12/06 01:50:13;;;;;;;69.72;42.65;;;;;;;-1.41;100.00;94012.97;1037098;28;20300;-86
2020/12/06 01:50:44;;;;;;;64.35;41.40;;;;;;;-1.37;100.00;94002.88;1036684;28;20093;-85
2020/12/06 01:51:16;;;;;;;63.72;41.55;;;;;;;-1.40;100.00;93988.59;1037047;28;20061;-84
2020/12/06 01:51:59;;;;;;;65.75;38.95;;;;;;;-1.29;100.00;94007.63;1033124;28;20026;-85
2020/12/06 01:52:30;;;;;;;65.00;41.15;;;;;;;-1.28;100.00;94007.38;1024525;29;20263;-82
2020/12/06 01:53:03;;;;;;;59.20;38.22;;;;;;;-1.22;100.00;93988.22;1024752;29;20305;-86
2020/12/06 01:53:33;;;;;;;59.92;40.10;;;;;;;-1.22;100.00;93980.44;1026243;28;20046;-86
2020/12/06 01:54:04;;;;;;;66.97;43.13;;;;;;;-1.28;100.00;93981.44;1024639;29;20275;-79
2020/12/06 01:54:35;;;;;;;60.47;39.95;;;;;;;-1.32;100.00;93964.78;1029212;28;20089;-86
2020/12/06 01:55:07;;;;;;;66.57;40.15;;;;;;;-1.24;100.00;93964.31;1033053;28;20073;-85
2020/12/06 01:55:38;;;;;;;63.22;41.42;;;;;;;-1.28;100.00;93949.50;1033435;28;20512;-83
2020/12/06 01:56:10;;;;;;;57.70;39.15;;;;;;;-1.21;100.00;93957.84;1040109;28;20736;-86
2020/12/06 01:56:43;;;;;;;63.58;41.47;;;;;;;-1.23;100.00;93967.69;1036653;28;20261;-84
2020/12/06 01:57:14;;;;;;;61.80;39.40;;;;;;;-1.22;100.00;93969.28;1037145;28;20264;-86
2020/12/06 01:57:45;;;;;;;60.38;40.35;;;;;;;-1.27;100.00;93977.81;1033356;28;20269;-83
2020/12/06 01:58:15;;;;;;;68.78;43.60;;;;;;;-1.27;100.00;93982.19;1032513;28;20277;-82
2020/12/06 01:58:46;;;;;;;65.63;41.90;;;;;;;-1.24;100.00;93974.72;1032600;28;20137;-86
2020/12/06 01:59:16;;;;;;;61.35;39.55;;;;;;;-1.23;100.00;93963.31;1024538;28;20038;-87
2020/12/06 01:59:50;;;;;;;63.28;39.47;;;;;;;-1.16;100.00;93952.72;1028709;28;20030;-84
2020/12/06 02:00:22;;;;;;;64.97;40.20;;;;;;;-1.17;100.00;93950.34;1022218;29;20035;-84
2020/12/06 02:00:52;;;;;;;73.72;42.72;;;;;;;-1.10;100.00;93956.91;1025163;28;20604;-82
2020/12/06 02:01:23;;;;;;;72.05;44.53;;;;;;;-1.08;100.00;93952.22;1026285;28;20027;-85
2020/12/06 02:02:00;;;;;;;72.35;42.42;;;;;;;-1.03;100.00;93944.50;1024464;28;20050;-84
2020/12/06 02:02:33;;;;;;;71.80;43.30;;;;;;;-0.90;100.00;93955.47;1017047;29;20060;-86
2020/12/06 02:03:04;;;;;;;69.28;38.53;;;;;;;-0.85;100.00;93956.28;1018011;29;20268;-84
2020/12/06 02:03:38;;;;;;;65.47;40.67;;;;;;;-0.82;100.00;93953.16;1025389;28;20268;-87
2020/12/06 02:04:11;;;;;;;65.20;40.58;;;;;;;-0.81;100.00;93952.13;1034590;28;20365;-83
2020/12/06 02:04:43;;;;;;;71.10;41.80;;;;;;;-0.79;100.00;93957.09;1036663;28;20261;-85
2020/12/06 02:05:13;;;;;;;72.00;41.45;;;;;;;-0.79;100.00;93967.47;1028960;28;20266;-86
2020/12/06 02:05:44;;;;;;;70.97;43.90;;;;;;;-0.77;100.00;93975.78;1029587;28;20050;-84
2020/12/06 02:06:15;;;;;;;71.20;41.30;;;;;;;-0.78;100.00;93989.78;1036828;28;20026;-85
2020/12/06 02:06:46;;;;;;;71.72;42.50;;;;;;;-0.79;100.00;93972.66;1036326;28;20744;-85
2020/12/06 02:07:16;;;;;;;69.45;43.65;;;;;;;-0.76;100.00;93972.16;1028416;28;20514;-84
2020/12/06 02:07:49;;;;;;;79.00;43.90;;;;;;;-0.87;100.00;93958.34;1028996;28;20029;-83
2020/12/06 02:08:22;;;;;;;73.95;43.92;;;;;;;-0.78;100.00;93966.44;1028602;28;20022;-84
2020/12/06 02:08:53;;;;;;;68.72;42.05;;;;;;;-0.76;100.00;93963.59;1028817;28;20278;-82
2020/12/06 02:09:27;;;;;;;73.82;41.20;;;;;;;-0.72;100.00;93964.63;1021369;29;20268;-82
2020/12/06 02:09:57;;;;;;;73.88;41.15;;;;;;;-0.73;100.00;93961.28;1026265;28;20023;-86
2020/12/06 02:10:29;;;;;;;75.00;43.35;;;;;;;-0.71;100.00;93966.22;1028806;28;20266;-86
2020/12/06 02:11:01;;;;;;;69.50;42.08;;;;;;;-0.68;100.00;93963.88;1022173;28;20023;-85
2020/12/06 02:11:32;;;;;;;73.70;43.53;;;;;;;-0.66;100.00;93967.00;1024083;29;20306;-85
2020/12/06 02:12:06;;;;;;;71.38;42.47;;;;;;;-0.67;100.00;93964.69;1020874;29;20283;-81
2020/12/06 02:12:37;;;;;;;74.95;42.97;;;;;;;-0.66;100.00;93964.41;1020498;29;20027;-83
2020/12/06 02:13:08;;;;;;;81.90;47.05;;;;;;;-0.66;100.00;93956.63;1020237;29;20287;-84
2020/12/06 02:13:38;;;;;;;71.93;44.38;;;;;;;-0.66;100.00;93946.22;1025198;28;20038;-84
2020/12/06 02:14:14;;;;;;;73.68;42.88;;;;;;;-0.73;100.00;93930.09;1029164;28;20105;-85
2020/12/06 02:14:45;;;;;;;70.30;41.63;;;;;;;-0.61;100.00;93948.84;1040981;28;20022;-84
2020/12/06 02:15:15;;;;;;;69.25;43.40;;;;;;;-0.61;100.00;93948.09;1037295;28;20315;-84
2020/12/06 02:15:46;;;;;;;64.15;42.85;;;;;;;-0.59;100.00;93959.00;1038612;28;20605;-81
2020/12/06 02:16:16;;;;;;;65.55;41.90;;;;;;;-0.58;100.00;93963.16;1040223;28;20030;-86
2020/12/06 02:16:47;;;;;;;65.72;40.92;;;;;;;-0.58;100.00;93970.16;1037225;28;20018;-84
2020/12/06 02:17:18;;;;;;;63.10;42.28;;;;;;;-0.57;100.00;93975.13;1037124;28;20036;-86
2020/12/06 02:17:48;;;;;;;67.80;41.25;;;;;;;-0.58;100.00;93975.34;1036543;28;20014;-84
2020/12/06 02:18:19;;;;;;;61.95;40.20;;;;;;;-0.60;100.00;93968.59;1040620;28;20037;-82
2020/12/06 02:18:50;;;;;;;69.55;43.50;;;;;;;-0.57;100.00;93979.53;1040915;28;20014;-85
2020/12/06 02:19:21;;;;;;;69.22;43.40;;;;;;;-0.59;100.00;93966.78;1045513;28;20025;-85
2020/12/06 02:19:55;;;;;;;67.55;42.65;;;;;;;-0.58;100.00;93970.16;1044761;28;20272;-85
2020/12/06 02:20:26;;;;;;;71.47;43.08;;;;;;;-0.59;100.00;93961.59;1039821;28;20328;-86
2020/12/06 02:20:59;;;;;;;68.70;42.60;;;;;;;-0.58;100.00;93954.56;1032352;28;20281;-84
2020/12/06 02:21:30;;;;;;;65.45;40.78;;;;;;;-0.54;100.00;93934.84;1034697;28;20291;-87
2020/12/06 02:22:00;;;;;;;61.53;40.50;;;;;;;-0.55;100.00;93928.88;1040962;28;20264;-85